createdAt,value
2023-03-29T00:00:42.327Z,1.25
2023-03-29T00:05:44.880Z,1.35
2023-03-29T00:10:49.521Z,1.17
2023-03-29T00:15:51.187Z,1.67
2023-03-29T00:40:11.762Z,1.02
2023-03-29T00:45:13.336Z,1.45
2023-03-29T00:50:33.192Z,1.33
2023-03-29T00:55:39.296Z,1.00
2023-03-29T01:00:48.742Z,1.30
2023-03-29T01:05:57.811Z,1.63
2023-03-29T01:11:18.077Z,2.38
2023-03-29T01:16:22.120Z,2.10
2023-03-29T01:21:44.423Z,1.30
2023-03-29T01:27:09.569Z,1.65
2023-03-29T01:32:23.419Z,1.40
2023-03-29T01:37:37.655Z,1.17
2023-03-29T01:43:04.569Z,0.90
2023-03-29T01:48:19.366Z,1.30
2023-03-29T01:53:42.277Z,1.20
2023-03-29T01:58:53.170Z,1.00
2023-03-29T02:04:02.853Z,1.20
2023-03-29T02:09:05.064Z,0.90
2023-03-29T02:14:07.527Z,1.00
2023-03-29T02:19:10.060Z,1.42
2023-03-29T02:24:15.365Z,1.20
2023-03-29T02:29:17.186Z,1.30
2023-03-29T02:34:19.271Z,1.02
2023-03-29T02:39:22.975Z,1.10
2023-03-29T02:44:28.522Z,1.33
2023-03-29T02:49:30.441Z,0.93
2023-03-29T02:54:32.977Z,1.38
2023-03-29T02:59:35.025Z,1.42
2023-03-29T03:04:36.633Z,1.50
2023-03-29T03:09:38.267Z,1.60
2023-03-29T03:14:40.534Z,1.52
2023-03-29T03:19:45.017Z,1.30
2023-03-29T03:24:46.630Z,1.23
2023-03-29T03:29:48.708Z,1.58
2023-03-29T03:34:50.633Z,1.50
2023-03-29T03:39:52.218Z,1.40
2023-03-29T03:44:54.222Z,1.42
2023-03-29T03:49:55.847Z,1.10
2023-03-29T03:54:57.454Z,1.27
2023-03-29T03:59:59.108Z,1.48
2023-03-29T04:05:03.414Z,1.55
2023-03-29T04:10:06.317Z,1.50
2023-03-29T04:15:09.733Z,1.42
2023-03-29T04:20:12.418Z,1.30
2023-03-29T04:25:14.324Z,1.63
2023-03-29T04:30:17.027Z,1.60
2023-03-29T04:35:18.660Z,2.70
2023-03-29T04:40:21.000Z,1.55
2023-03-29T04:45:22.845Z,1.80
2023-03-29T04:50:24.633Z,1.30
2023-03-29T04:55:26.590Z,1.75
2023-03-29T05:00:28.717Z,1.52
2023-03-29T05:11:55.801Z,1.70
2023-03-29T05:16:57.488Z,1.42
2023-03-29T05:21:59.184Z,1.77
2023-03-29T05:27:01.306Z,1.60
2023-03-29T05:32:03.035Z,1.80
2023-03-29T05:37:04.771Z,1.98
2023-03-29T05:42:06.559Z,1.65
2023-03-29T05:47:08.157Z,1.70
2023-03-29T06:05:37.012Z,1.83
2023-03-29T06:10:38.938Z,1.77
2023-03-29T06:15:40.575Z,2.17
2023-03-29T06:20:42.692Z,1.65
2023-03-29T06:25:45.697Z,1.75
2023-03-29T06:30:48.336Z,1.60
2023-03-29T06:35:50.275Z,1.65
2023-03-29T06:40:52.806Z,2.70
2023-03-29T06:45:55.047Z,2.13
2023-03-29T06:50:56.991Z,1.75
2023-03-29T06:55:59.671Z,1.67
2023-03-29T07:01:05.192Z,2.65
2023-03-29T07:06:10.271Z,2.23
2023-03-29T07:11:14.239Z,1.52
2023-03-29T07:16:16.361Z,1.73
2023-03-29T07:21:18.022Z,1.98
2023-03-29T07:26:29.778Z,1.73
2023-03-29T07:31:35.917Z,1.80
2023-03-29T07:36:38.678Z,1.92
2023-03-29T07:41:40.710Z,1.40
2023-03-29T07:46:43.403Z,1.42
2023-03-29T07:51:45.064Z,2.03
2023-03-29T07:56:48.049Z,2.33
2023-03-29T08:01:50.554Z,1.98
2023-03-29T08:06:53.131Z,2.13
2023-03-29T08:11:54.967Z,2.95
2023-03-29T08:16:56.820Z,2.22
2023-03-29T08:21:58.983Z,2.50
2023-03-29T08:27:00.833Z,2.35
2023-03-29T08:32:03.086Z,2.28
2023-03-29T08:37:05.138Z,2.13
2023-03-29T08:42:31.378Z,2.50
2023-03-29T08:47:39.844Z,2.00
2023-03-29T08:52:47.119Z,4.68
2023-03-29T08:57:51.732Z,16.52
2023-03-29T09:02:54.493Z,7.88
2023-03-29T09:07:57.019Z,4.60
2023-03-29T09:13:34.892Z,2.80
2023-03-29T09:19:06.466Z,3.03
2023-03-29T09:24:29.689Z,2.30
2023-03-29T09:29:31.351Z,2.33
2023-03-29T09:34:49.362Z,2.17
2023-03-29T09:39:53.319Z,2.63
2023-03-29T09:45:02.055Z,2.33
2023-03-29T09:50:27.673Z,2.72
2023-03-29T09:55:35.282Z,3.22
2023-03-29T10:00:37.325Z,3.75
2023-03-29T10:05:39.271Z,3.95
2023-03-29T10:10:41.592Z,7.57
2023-03-29T10:15:43.494Z,27.15
2023-03-29T10:20:45.480Z,41.97
2023-03-29T10:25:47.522Z,50.40
2023-03-29T10:31:00.195Z,30.73
2023-03-29T10:36:07.002Z,5.72
2023-03-29T10:41:12.989Z,29.63
2023-03-29T10:46:44.227Z,5.27
2023-03-29T10:51:47.275Z,3.85
2023-03-29T10:56:58.928Z,6.50
2023-03-29T11:02:17.168Z,14.60
2023-03-29T11:07:19.939Z,5.47
2023-03-29T11:12:52.277Z,2.50
2023-03-29T11:18:06.030Z,2.83
2023-03-29T11:23:27.560Z,3.10
2023-03-29T11:28:47.981Z,2.03
2023-03-29T11:34:11.814Z,2.45
2023-03-29T11:39:38.861Z,3.28
2023-03-29T11:44:41.859Z,2.35
2023-03-29T11:50:03.344Z,2.00
2023-03-29T11:55:13.852Z,1.90
2023-03-29T12:00:22.248Z,1.77
2023-03-29T12:05:37.414Z,1.92
2023-03-29T12:11:10.068Z,1.90
2023-03-29T12:16:34.634Z,2.10
2023-03-29T12:21:36.860Z,1.58
2023-03-29T12:26:44.858Z,1.77
2023-03-29T12:32:01.708Z,1.77
2023-03-29T12:37:27.937Z,2.45
2023-03-29T12:42:29.898Z,1.98
2023-03-29T12:47:43.793Z,1.40
2023-03-29T12:52:45.535Z,7.30
2023-03-29T12:58:06.684Z,7.22
2023-03-29T13:03:27.666Z,1.80
2023-03-29T13:08:44.506Z,4.90
2023-03-29T13:13:50.725Z,3.35
2023-03-29T13:19:14.663Z,1.50
2023-03-29T13:24:41.382Z,1.77
2023-03-29T13:30:11.928Z,1.35
2023-03-29T13:35:31.408Z,1.95
2023-03-29T13:40:47.024Z,2.08
2023-03-29T13:46:05.280Z,1.70
2023-03-29T13:51:19.068Z,1.90
2023-03-29T13:56:30.084Z,1.73
2023-03-29T14:01:53.557Z,1.95
2023-03-29T14:06:56.921Z,1.45
2023-03-29T14:12:00.370Z,2.05
2023-03-29T14:17:02.284Z,1.80
2023-03-29T14:22:12.528Z,1.83
2023-03-29T14:27:14.398Z,1.88
2023-03-29T14:32:18.645Z,1.50
2023-03-29T14:37:29.036Z,2.10
2023-03-29T14:42:30.752Z,2.03
2023-03-29T14:47:33.530Z,1.65
2023-03-29T14:52:35.488Z,3.25
2023-03-29T14:57:38.100Z,8.00
2023-03-29T15:02:50.000Z,6.35
2023-03-29T15:07:56.091Z,5.13
2023-03-29T15:12:58.246Z,3.20
2023-03-29T15:18:00.900Z,2.22
2023-03-29T15:23:08.631Z,2.20
2023-03-29T15:28:32.838Z,1.90
2023-03-29T15:33:40.450Z,2.20
2023-03-29T15:38:45.211Z,2.75
2023-03-29T15:43:47.172Z,2.58
2023-03-29T15:48:48.808Z,2.45
2023-03-29T15:53:50.449Z,2.55
2023-03-29T15:58:52.362Z,6.70
2023-03-29T16:03:54.036Z,3.03
2023-03-29T16:08:57.226Z,3.35
2023-03-29T16:13:59.427Z,2.55
2023-03-29T16:19:01.102Z,3.08
2023-03-29T16:24:04.066Z,2.30
2023-03-29T16:29:05.768Z,3.65
2023-03-29T16:34:09.456Z,3.00
2023-03-29T16:39:13.141Z,2.42
2023-03-29T16:44:18.101Z,2.17
2023-03-29T16:49:20.791Z,2.23
2023-03-29T16:54:25.940Z,1.92
2023-03-29T16:59:27.809Z,2.10
2023-03-29T17:04:29.820Z,2.10
2023-03-29T17:09:32.271Z,2.10
2023-03-29T17:14:33.906Z,2.28
2023-03-29T17:19:36.172Z,2.47
2023-03-29T17:24:38.026Z,3.10
2023-03-29T17:29:39.903Z,3.65
2023-03-29T17:34:41.793Z,3.55
2023-03-29T17:39:43.880Z,4.07
2023-03-29T17:44:48.745Z,3.88
2023-03-29T17:49:52.218Z,3.05
2023-03-29T17:54:54.587Z,2.83
2023-03-29T17:59:56.922Z,2.60
2023-03-29T18:05:02.013Z,2.88
2023-03-29T18:10:05.264Z,3.03
2023-03-29T18:15:08.617Z,4.70
2023-03-29T18:20:11.928Z,4.60
2023-03-29T18:25:18.229Z,4.88
2023-03-29T18:30:20.990Z,4.93
2023-03-29T18:35:25.662Z,7.05
2023-03-29T18:40:28.454Z,7.10
2023-03-29T18:45:31.070Z,6.80
2023-03-29T18:50:33.336Z,6.25
2023-03-29T18:55:35.981Z,7.05
2023-03-29T19:00:39.402Z,7.15
2023-03-29T19:05:41.631Z,6.93
2023-03-29T19:10:44.263Z,5.78
2023-03-29T19:15:48.212Z,5.35
2023-03-29T19:20:56.988Z,5.28
2023-03-29T19:26:03.416Z,5.45
2023-03-29T19:31:06.462Z,4.63
2023-03-29T19:36:09.110Z,4.15
2023-03-29T19:41:12.922Z,4.70
2023-03-29T19:46:16.454Z,4.40
2023-03-29T19:51:18.801Z,4.22
2023-03-29T19:56:23.644Z,6.43
2023-03-29T20:01:27.526Z,3.42
2023-03-29T20:06:29.446Z,4.05
2023-03-29T20:11:31.563Z,4.70
2023-03-29T20:16:34.949Z,4.85
2023-03-29T20:21:40.102Z,4.97
2023-03-29T20:26:42.276Z,5.15
2023-03-29T20:31:45.549Z,6.10
2023-03-29T20:36:47.355Z,5.55
2023-03-29T20:41:50.767Z,5.15
2023-03-29T20:47:06.819Z,4.72
2023-03-29T20:52:17.543Z,4.25
2023-03-29T20:57:21.117Z,4.68
2023-03-29T21:02:23.955Z,4.88
2023-03-29T21:07:26.635Z,4.82
2023-03-29T21:12:28.480Z,4.30
2023-03-29T21:17:30.414Z,4.20
2023-03-29T21:22:34.825Z,4.55
2023-03-29T21:27:37.221Z,4.28
2023-03-29T21:32:39.059Z,4.85
2023-03-29T21:37:40.865Z,5.15
2023-03-29T21:42:42.492Z,4.38
2023-03-29T21:47:44.196Z,4.30
2023-03-29T21:52:45.981Z,4.50
2023-03-29T21:57:50.414Z,4.03
2023-03-29T22:02:52.297Z,3.67
2023-03-29T22:07:54.061Z,3.72
2023-03-29T22:12:57.293Z,3.83
2023-03-29T22:18:00.365Z,3.83
2023-03-29T22:23:03.282Z,3.88
2023-03-29T22:28:05.055Z,3.67
2023-03-29T22:33:06.981Z,4.47
2023-03-29T22:38:08.737Z,3.35
2023-03-29T22:43:10.375Z,3.95
2023-03-29T22:48:12.218Z,3.53
2023-03-29T22:53:14.263Z,4.20
2023-03-29T22:58:16.280Z,3.50
2023-03-29T23:03:18.331Z,3.80
2023-03-29T23:08:20.130Z,3.65
2023-03-29T23:13:26.036Z,3.50
2023-03-29T23:18:29.601Z,3.33
2023-03-29T23:23:31.776Z,3.92
2023-03-29T23:28:34.686Z,4.88
2023-03-29T23:33:38.742Z,5.25
2023-03-29T23:38:42.325Z,4.53
2023-03-29T23:43:47.069Z,4.20
2023-03-29T23:48:50.274Z,3.90
2023-03-29T23:53:52.120Z,3.78
2023-03-29T23:58:54.347Z,4.07
